Time;durP1;ratioP1;P1;durP2;ratioP2;P2;SDS_P1;SDS_P2;PMS_P1;PMS_P2;Temp;Humidity;BMP_temperature;BMP_pressure;BME280_temperature;BME280_humidity;BME280_pressure;Samples;Min_cycle;Max_cycle;Signal;HPM_P1;HPM_P2
2022/11/01 00:01:52;;;;;;;27.92;16.83;;;;;;;;;;5001559;28;20080;-72
2022/11/01 00:04:18;;;;;;;32.85;18.75;;;;;;;;;;5000218;28;20061;-71
2022/11/01 00:06:44;;;;;;;27.45;17.30;;;;;;;;;;5002671;28;20045;-71
2022/11/01 00:09:10;;;;;;;23.38;16.02;;;;;;;;;;5001063;28;20025;-71
2022/11/01 00:11:36;;;;;;;25.70;17.00;;;;;;;;;;5000009;28;20026;-71
2022/11/01 00:14:02;;;;;;;19.60;15.85;;;;;;;;;;5001476;28;20103;-71
2022/11/01 00:16:28;;;;;;;28.05;16.58;;;;;;;;;;4996462;28;20497;-71
2022/11/01 00:18:54;;;;;;;18.48;15.13;;;;;;;;;;4999876;28;20489;-71
2022/11/01 00:21:20;;;;;;;23.13;15.68;;;;;;;;;;4999596;28;20507;-71
2022/11/01 00:23:46;;;;;;;20.98;14.45;;;;;;;;;;5001375;28;20120;-71
2022/11/01 00:26:17;;;;;;;21.80;14.98;;;;;;;;;;4994911;28;20489;-71
2022/11/01 00:28:43;;;;;;;23.52;15.30;;;;;;;;;;4996702;28;20069;-71
2022/11/01 00:31:09;;;;;;;23.40;15.68;;;;;;;;;;4999117;28;20041;-71
2022/11/01 00:33:35;;;;;;;23.27;15.95;;;;;;;;;;4997672;28;20573;-71
2022/11/01 00:36:01;;;;;;;26.15;16.98;;;;;;;;;;5002461;28;20034;-71
2022/11/01 00:38:27;;;;;;;21.65;15.52;;;;;;;;;;5003385;28;20124;-71
2022/11/01 00:40:54;;;;;;;24.60;15.82;;;;;;;;;;5004238;28;20034;-71
2022/11/01 00:43:19;;;;;;;21.70;15.95;;;;;;;;;;4999373;28;20338;-71
2022/11/01 00:45:45;;;;;;;18.13;15.00;;;;;;;;;;4998737;28;20029;-71
2022/11/01 00:48:12;;;;;;;23.27;15.45;;;;;;;;;;5001934;28;20044;-71
2022/11/01 00:50:38;;;;;;;23.75;14.93;;;;;;;;;;5000193;28;20034;-71
2022/11/01 00:53:04;;;;;;;20.45;15.38;;;;;;;;;;5002665;28;20566;-71
2022/11/01 00:55:29;;;;;;;15.98;14.27;;;;;;;;;;4999889;28;20030;-71
2022/11/01 00:57:55;;;;;;;23.98;15.57;;;;;;;;;;4999717;28;20029;-71
2022/11/01 01:00:20;;;;;;;20.63;15.43;;;;;;;;;;4997447;28;20042;-71
2022/11/01 01:02:46;;;;;;;23.20;15.95;;;;;;;;;;5000881;28;20113;-71
2022/11/01 01:05:12;;;;;;;21.00;14.50;;;;;;;;;;5002419;28;20040;-71
2022/11/01 01:07:37;;;;;;;17.65;13.85;;;;;;;;;;4999165;28;20061;-71
2022/11/01 01:10:04;;;;;;;18.67;15.50;;;;;;;;;;5000600;28;20077;-71
2022/11/01 01:12:30;;;;;;;18.67;15.23;;;;;;;;;;4999455;28;20029;-71
2022/11/01 01:14:56;;;;;;;23.00;15.85;;;;;;;;;;5006164;28;20099;-71
2022/11/01 01:17:21;;;;;;;22.45;15.50;;;;;;;;;;5003936;28;20029;-71
2022/11/01 01:19:47;;;;;;;24.30;15.18;;;;;;;;;;5002710;28;20038;-71
2022/11/01 01:22:13;;;;;;;21.42;15.95;;;;;;;;;;5006650;28;20052;-71
2022/11/01 01:24:44;;;;;;;21.42;15.13;;;;;;;;;;5001483;28;20033;-71
2022/11/01 01:27:16;;;;;;;19.50;15.32;;;;;;;;;;5002109;28;20682;-70
2022/11/01 01:29:43;;;;;;;22.33;15.27;;;;;;;;;;5006455;28;20026;-71
2022/11/01 01:32:14;;;;;;;19.23;15.18;;;;;;;;;;5002933;28;20030;-71
2022/11/01 01:34:39;;;;;;;18.55;15.20;;;;;;;;;;5001189;28;20050;-71
2022/11/01 01:37:06;;;;;;;17.48;15.20;;;;;;;;;;5003206;28;20190;-71
2022/11/01 01:39:32;;;;;;;25.20;15.82;;;;;;;;;;5005865;28;20049;-71
2022/11/01 01:41:57;;;;;;;18.55;14.38;;;;;;;;;;5006101;28;20038;-71
2022/11/01 01:44:51;;;;;;;21.40;14.18;;;;;;;;;;5002743;28;20065;-71
2022/11/01 01:47:24;;;;;;;19.05;14.57;;;;;;;;;;5001883;28;20077;-71
2022/11/01 01:50:06;;;;;;;21.75;13.90;;;;;;;;;;5001818;28;20548;-71
2022/11/01 01:52:36;;;;;;;19.30;13.15;;;;;;;;;;5003719;28;20062;-71
2022/11/01 01:55:06;;;;;;;17.45;13.98;;;;;;;;;;5002382;28;20034;-71
2022/11/01 01:57:34;;;;;;;16.67;13.60;;;;;;;;;;5010801;28;20068;-71
2022/11/01 02:00:00;;;;;;;17.60;14.38;;;;;;;;;;5008453;28;20030;-71
2022/11/01 02:02:26;;;;;;;21.13;14.57;;;;;;;;;;5004516;28;20478;-71
2022/11/01 02:04:57;;;;;;;16.85;13.80;;;;;;;;;;5008979;28;20108;-71
2022/11/01 02:07:23;;;;;;;24.33;14.52;;;;;;;;;;5002882;28;20033;-71
2022/11/01 02:09:49;;;;;;;18.70;13.77;;;;;;;;;;5008003;28;20077;-71
2022/11/01 02:12:15;;;;;;;19.80;14.43;;;;;;;;;;5008525;28;20105;-71
2022/11/01 02:14:43;;;;;;;22.38;15.07;;;;;;;;;;5007942;28;20591;-71
2022/11/01 02:17:40;;;;;;;16.90;14.52;;;;;;;;;;5007394;28;20034;-71
2022/11/01 02:20:31;;;;;;;20.85;15.65;;;;;;;;;;5009670;28;20678;-71
2022/11/01 02:23:25;;;;;;;18.25;14.13;;;;;;;;;;5010373;28;20611;-71
2022/11/01 02:25:50;;;;;;;22.25;15.50;;;;;;;;;;5011417;28;20046;-71
2022/11/01 02:28:54;;;;;;;23.23;14.68;;;;;;;;;;5004103;28;20401;-71
2022/11/01 02:31:25;;;;;;;17.30;13.98;;;;;;;;;;5011207;28;20117;-71
2022/11/01 02:34:09;;;;;;;20.92;15.13;;;;;;;;;;5005088;28;20128;-71
2022/11/01 02:36:44;;;;;;;20.13;15.90;;;;;;;;;;5003682;28;20026;-71
2022/11/01 02:39:19;;;;;;;16.40;14.70;;;;;;;;;;5009296;28;20030;-71
2022/11/01 02:42:03;;;;;;;17.05;14.50;;;;;;;;;;5009448;28;20053;-71
2022/11/01 02:44:34;;;;;;;20.67;14.82;;;;;;;;;;5001054;28;20117;-71
2022/11/01 02:47:01;;;;;;;19.00;14.88;;;;;;;;;;5008544;28;20501;-71
2022/11/01 02:49:44;;;;;;;26.65;16.73;;;;;;;;;;5008212;28;20113;-71
2022/11/01 02:52:14;;;;;;;25.23;15.38;;;;;;;;;;5007578;28;20033;-71
2022/11/01 02:54:47;;;;;;;24.23;15.75;;;;;;;;;;5012105;28;20152;-71
2022/11/01 02:57:16;;;;;;;26.65;16.20;;;;;;;;;;5006148;28;20091;-71
2022/11/01 02:59:44;;;;;;;27.77;16.90;;;;;;;;;;5004046;28;20041;-71
2022/11/01 03:02:38;;;;;;;24.33;16.52;;;;;;;;;;5005998;28;20053;-71
2022/11/01 03:05:05;;;;;;;28.83;17.08;;;;;;;;;;5005234;28;20038;-71
2022/11/01 03:07:31;;;;;;;25.40;17.27;;;;;;;;;;5009476;28;20036;-72
2022/11/01 03:09:57;;;;;;;24.33;16.40;;;;;;;;;;5001551;28;20037;-72
2022/11/01 03:12:28;;;;;;;19.92;15.63;;;;;;;;;;5005630;28;20087;-72
2022/11/01 03:15:00;;;;;;;22.02;15.73;;;;;;;;;;5010868;28;20045;-71
2022/11/01 03:17:51;;;;;;;21.30;15.15;;;;;;;;;;5001584;28;20116;-71
2022/11/01 03:20:27;;;;;;;18.20;15.35;;;;;;;;;;5008326;28;20088;-72
2022/11/01 03:22:59;;;;;;;20.98;15.77;;;;;;;;;;5007275;28;20138;-72
2022/11/01 03:25:38;;;;;;;18.10;14.73;;;;;;;;;;5009276;28;20034;-72
2022/11/01 03:28:17;;;;;;;24.23;15.23;;;;;;;;;;5002900;28;20042;-71
2022/11/01 03:30:56;;;;;;;21.27;16.10;;;;;;;;;;5007754;28;20099;-72
2022/11/01 03:33:24;;;;;;;18.73;14.75;;;;;;;;;;5009292;28;20496;-71
2022/11/01 03:35:52;;;;;;;;;;;;;;;;;;5004424;28;20453;-71
2022/11/01 03:38:24;;;;;;;24.05;16.33;;;;;;;;;;5006569;28;19921;-71
2022/11/01 03:40:55;;;;;;;19.80;15.48;;;;;;;;;;5006011;28;20053;-71
2022/11/01 03:43:24;;;;;;;17.45;15.40;;;;;;;;;;5006666;28;20113;-71
2022/11/01 03:45:49;;;;;;;21.25;15.85;;;;;;;;;;5004303;28;20026;-71
2022/11/01 03:48:15;;;;;;;23.00;15.15;;;;;;;;;;5003747;28;20030;-71
2022/11/01 03:50:50;;;;;;;18.70;15.30;;;;;;;;;;5009990;28;20501;-71
2022/11/01 03:53:16;;;;;;;19.58;15.05;;;;;;;;;;5005388;28;20034;-71
2022/11/01 03:55:45;;;;;;;18.33;15.27;;;;;;;;;;5007155;28;20033;-71
2022/11/01 03:58:11;;;;;;;20.27;16.77;;;;;;;;;;4999413;28;20033;-71
2022/11/01 04:00:42;;;;;;;16.95;15.15;;;;;;;;;;5007826;28;20034;-71
2022/11/01 04:03:09;;;;;;;25.08;15.73;;;;;;;;;;5003796;28;20123;-71
2022/11/01 04:05:36;;;;;;;21.10;12.60;;;;;;;;;;5007737;28;20034;-71
2022/11/01 04:08:02;;;;;;;21.20;14.80;;;;;;;;;;5002614;28;20087;-71
2022/11/01 04:10:28;;;;;;;18.02;14.30;;;;;;;;;;5008421;28;20034;-71
2022/11/01 04:12:55;;;;;;;22.23;15.25;;;;;;;;;;5007718;28;20032;-71
2022/11/01 04:21:08;;;;;;;25.27;15.52;;;;;;;;;;5005280;28;20038;-72
2022/11/01 04:23:34;;;;;;;21.15;15.55;;;;;;;;;;5009968;28;20439;-72
2022/11/01 04:26:00;;;;;;;17.90;14.60;;;;;;;;;;5006665;28;20061;-72
2022/11/01 04:28:26;;;;;;;18.92;15.15;;;;;;;;;;5004279;28;20034;-71
2022/11/01 04:30:52;;;;;;;20.60;14.60;;;;;;;;;;5004276;28;20045;-72
2022/11/01 04:33:18;;;;;;;18.77;15.32;;;;;;;;;;5005960;28;20089;-72
2022/11/01 04:35:44;;;;;;;23.63;14.85;;;;;;;;;;5006540;28;20045;-72
2022/11/01 04:38:11;;;;;;;23.58;15.43;;;;;;;;;;5000023;28;20117;-72
2022/11/01 04:40:37;;;;;;;22.02;14.15;;;;;;;;;;5004356;28;20061;-71
2022/11/01 04:43:03;;;;;;;22.95;14.90;;;;;;;;;;5006255;28;20072;-72
2022/11/01 04:45:28;;;;;;;22.27;15.43;;;;;;;;;;5006956;28;20100;-72
2022/11/01 04:48:11;;;;;;;18.65;13.98;;;;;;;;;;5003890;28;20044;-71
2022/11/01 04:50:37;;;;;;;19.50;14.48;;;;;;;;;;5005883;28;20759;-72
2022/11/01 04:53:03;;;;;;;19.95;14.07;;;;;;;;;;5004527;28;20117;-71
2022/11/01 04:55:29;;;;;;;19.35;15.18;;;;;;;;;;5005085;28;20069;-72
2022/11/01 04:57:55;;;;;;;22.10;14.32;;;;;;;;;;5003542;28;20038;-72
2022/11/01 05:00:24;;;;;;;18.00;14.15;;;;;;;;;;5001924;28;20053;-72
2022/11/01 05:02:49;;;;;;;23.10;15.63;;;;;;;;;;5004112;28;20029;-71
2022/11/01 05:05:15;;;;;;;15.77;14.10;;;;;;;;;;4995676;28;20065;-72
2022/11/01 05:07:41;;;;;;;18.55;14.30;;;;;;;;;;5000952;28;20030;-71
2022/11/01 05:10:07;;;;;;;20.25;14.77;;;;;;;;;;5004518;28;20041;-72
2022/11/01 05:12:33;;;;;;;14.00;12.10;;;;;;;;;;5008045;28;20032;-72
2022/11/01 05:14:59;;;;;;;15.57;11.52;;;;;;;;;;5007760;28;20029;-72
2022/11/01 05:17:24;;;;;;;13.02;11.27;;;;;;;;;;4999954;28;20119;-71
2022/11/01 05:19:50;;;;;;;11.25;9.63;;;;;;;;;;5004413;28;20038;-72
2022/11/01 05:22:16;;;;;;;12.07;10.40;;;;;;;;;;5005195;28;20033;-72
2022/11/01 05:24:42;;;;;;;10.98;9.80;;;;;;;;;;5005433;28;20037;-72
2022/11/01 05:27:07;;;;;;;12.82;9.65;;;;;;;;;;5003131;28;20056;-72
2022/11/01 05:29:33;;;;;;;9.75;8.85;;;;;;;;;;5005759;28;20465;-72
2022/11/01 05:31:59;;;;;;;11.38;8.75;;;;;;;;;;5005677;28;20049;-71
2022/11/01 05:34:24;;;;;;;9.70;8.68;;;;;;;;;;4998332;28;20033;-72
2022/11/01 05:36:50;;;;;;;9.70;8.75;;;;;;;;;;5009564;28;20033;-72
2022/11/01 05:39:16;;;;;;;9.65;8.63;;;;;;;;;;5006551;28;20477;-72
2022/11/01 05:41:41;;;;;;;11.20;8.80;;;;;;;;;;5002492;28;20038;-72
2022/11/01 05:44:06;;;;;;;10.02;9.13;;;;;;;;;;5002986;28;20052;-72
2022/11/01 05:46:32;;;;;;;9.77;8.85;;;;;;;;;;5007999;28;20094;-72
2022/11/01 05:48:58;;;;;;;10.50;9.18;;;;;;;;;;5005680;28;20042;-72
2022/11/01 05:51:23;;;;;;;15.48;10.90;;;;;;;;;;5002184;28;20026;-72
2022/11/01 05:53:49;;;;;;;14.95;11.32;;;;;;;;;;5003356;28;20119;-76
2022/11/01 05:56:16;;;;;;;13.98;9.82;;;;;;;;;;5004334;28;20034;-76
2022/11/01 05:58:42;;;;;;;9.27;8.40;;;;;;;;;;5001398;28;20567;-76
2022/11/01 06:01:08;;;;;;;10.00;8.50;;;;;;;;;;5001527;28;20038;-76
2022/11/01 06:03:35;;;;;;;9.23;8.32;;;;;;;;;;5004433;28;20370;-76
2022/11/01 06:06:01;;;;;;;8.82;8.02;;;;;;;;;;5001389;28;20034;-77
2022/11/01 06:08:27;;;;;;;11.90;9.80;;;;;;;;;;4999052;28;20125;-76
2022/11/01 06:10:59;;;;;;;15.10;10.27;;;;;;;;;;5002833;28;20152;-76
2022/11/01 06:13:24;;;;;;;17.77;11.25;;;;;;;;;;5002103;28;20033;-75
2022/11/01 06:15:59;;;;;;;9.77;8.93;;;;;;;;;;5006009;28;20031;-76
2022/11/01 06:18:25;;;;;;;8.93;8.02;;;;;;;;;;5007122;28;20508;-75
2022/11/01 06:20:51;;;;;;;12.45;7.97;;;;;;;;;;5007262;28;20048;-76
2022/11/01 06:23:17;;;;;;;12.00;8.75;;;;;;;;;;5007898;28;20378;-75
2022/11/01 06:25:42;;;;;;;9.05;8.25;;;;;;;;;;5005979;28;20132;-75
2022/11/01 06:28:08;;;;;;;10.23;8.57;;;;;;;;;;5005955;28;20076;-76
2022/11/01 06:30:34;;;;;;;9.30;8.43;;;;;;;;;;5007549;28;20084;-76
2022/11/01 06:33:00;;;;;;;9.00;8.15;;;;;;;;;;5004705;28;20034;-75
2022/11/01 06:35:28;;;;;;;8.98;8.25;;;;;;;;;;4999854;28;20068;-76
2022/11/01 06:37:54;;;;;;;8.03;7.40;;;;;;;;;;5006458;28;20030;-76
2022/11/01 06:40:20;;;;;;;8.40;7.70;;;;;;;;;;5004284;28;20300;-75
2022/11/01 06:42:45;;;;;;;8.38;7.68;;;;;;;;;;5006906;28;20116;-75
2022/11/01 06:45:11;;;;;;;7.90;7.30;;;;;;;;;;5009241;28;20493;-76
2022/11/01 06:47:36;;;;;;;8.98;7.13;;;;;;;;;;5010140;28;20044;-76
2022/11/01 06:50:03;;;;;;;8.05;7.45;;;;;;;;;;5006492;28;20084;-76
2022/11/01 06:52:28;;;;;;;8.25;7.65;;;;;;;;;;5004366;28;20048;-75
2022/11/01 06:54:54;;;;;;;7.93;7.25;;;;;;;;;;5011495;28;20113;-76
2022/11/01 06:57:19;;;;;;;9.50;7.38;;;;;;;;;;5009580;28;20084;-76
2022/11/01 06:59:45;;;;;;;7.95;7.25;;;;;;;;;;5005305;28;20037;-76
2022/11/01 07:02:10;;;;;;;8.48;7.78;;;;;;;;;;5008209;28;20037;-77
2022/11/01 07:04:36;;;;;;;13.23;8.95;;;;;;;;;;5005646;28;20030;-76
2022/11/01 07:07:03;;;;;;;12.85;8.32;;;;;;;;;;5004250;28;20402;-76
2022/11/01 07:09:28;;;;;;;9.30;8.15;;;;;;;;;;5008955;28;20036;-76
2022/11/01 07:11:54;;;;;;;8.90;8.07;;;;;;;;;;5012357;28;20033;-76
2022/11/01 07:14:19;;;;;;;12.75;9.70;;;;;;;;;;5004132;28;20362;-75
2022/11/01 07:16:45;;;;;;;9.98;9.18;;;;;;;;;;5004081;28;20056;-76
2022/11/01 07:19:10;;;;;;;10.60;9.55;;;;;;;;;;4999205;28;20482;-76
2022/11/01 07:21:36;;;;;;;10.13;9.10;;;;;;;;;;5004551;28;20579;-76
2022/11/01 07:24:02;;;;;;;10.93;8.85;;;;;;;;;;5005860;28;20464;-76
2022/11/01 07:26:28;;;;;;;9.80;8.95;;;;;;;;;;5003472;28;20056;-77
2022/11/01 07:28:53;;;;;;;10.07;9.23;;;;;;;;;;5004090;28;20501;-77
2022/11/01 07:31:19;;;;;;;10.40;9.50;;;;;;;;;;5004051;28;20112;-77
2022/11/01 07:33:45;;;;;;;68.97;24.98;;;;;;;;;;5004763;28;20067;-76
2022/11/01 07:36:10;;;;;;;10.05;9.05;;;;;;;;;;5002042;28;20044;-76
2022/11/01 07:38:37;;;;;;;12.05;10.80;;;;;;;;;;5004715;28;20073;-76
2022/11/01 07:41:03;;;;;;;10.52;9.38;;;;;;;;;;5009370;28;20045;-77
2022/11/01 07:43:29;;;;;;;11.55;9.85;;;;;;;;;;5003657;28;20033;-76
2022/11/01 07:45:59;;;;;;;10.80;9.63;;;;;;;;;;5002978;28;20568;-76
2022/11/01 07:48:25;;;;;;;10.50;9.55;;;;;;;;;;4999739;28;20035;-76
2022/11/01 07:50:55;;;;;;;9.57;8.68;;;;;;;;;;5003770;28;20389;-76
2022/11/01 07:53:20;;;;;;;10.90;8.85;;;;;;;;;;5001990;28;20044;-76
2022/11/01 07:55:47;;;;;;;9.68;8.63;;;;;;;;;;5003881;28;20030;-74
2022/11/01 07:58:14;;;;;;;9.50;8.57;;;;;;;;;;5000031;28;20456;-77
2022/11/01 08:00:40;;;;;;;9.70;8.88;;;;;;;;;;5002789;28;20509;-77
2022/11/01 08:03:09;;;;;;;9.85;8.95;;;;;;;;;;5005524;28;20053;-76
2022/11/01 08:05:35;;;;;;;11.57;8.93;;;;;;;;;;5000052;28;20038;-77
2022/11/01 08:08:01;;;;;;;10.57;9.15;;;;;;;;;;5003530;28;20030;-76
2022/11/01 08:10:27;;;;;;;11.95;9.85;;;;;;;;;;5005893;28;20138;-77
2022/11/01 08:13:25;;;;;;;8.75;7.95;;;;;;;;;;5005730;28;20128;-76
2022/11/01 08:15:52;;;;;;;8.63;7.88;;;;;;;;;;5004173;28;20050;-74
2022/11/01 08:18:23;;;;;;;9.15;8.35;;;;;;;;;;5006561;28;20033;-77
2022/11/01 08:20:50;;;;;;;11.27;10.18;;;;;;;;;;5000986;28;20111;-77
2022/11/01 08:23:16;;;;;;;9.55;8.60;;;;;;;;;;5000720;28;20033;-76
2022/11/01 08:25:41;;;;;;;8.40;7.60;;;;;;;;;;5002833;28;20461;-76
2022/11/01 08:28:15;;;;;;;8.32;7.72;;;;;;;;;;5007089;28;20034;-76
2022/11/01 08:30:42;;;;;;;8.38;7.72;;;;;;;;;;5001119;28;20039;-76
2022/11/01 08:33:08;;;;;;;8.68;8.00;;;;;;;;;;5002960;28;20030;-76
2022/11/01 08:35:34;;;;;;;7.97;7.38;;;;;;;;;;5005866;28;20470;-76
2022/11/01 08:38:02;;;;;;;8.10;7.40;;;;;;;;;;5006491;28;20038;-76
2022/11/01 08:40:28;;;;;;;8.18;7.50;;;;;;;;;;5005334;28;20080;-76
2022/11/01 08:42:54;;;;;;;8.50;7.80;;;;;;;;;;5005420;28;20036;-76
2022/11/01 08:45:20;;;;;;;7.75;7.15;;;;;;;;;;5005962;28;20041;-77
2022/11/01 08:47:45;;;;;;;7.97;7.38;;;;;;;;;;4999073;28;20049;-75
2022/11/01 08:50:13;;;;;;;8.25;7.60;;;;;;;;;;5006621;28;20080;-77
2022/11/01 08:52:40;;;;;;;8.13;7.50;;;;;;;;;;5006491;28;20050;-77
2022/11/01 08:55:07;;;;;;;7.65;7.03;;;;;;;;;;5004607;28;20030;-76
2022/11/01 08:57:33;;;;;;;7.60;6.95;;;;;;;;;;5003843;28;20033;-77
2022/11/01 08:59:58;;;;;;;7.47;6.97;;;;;;;;;;5002666;28;20446;-77
2022/11/01 09:02:24;;;;;;;9.18;8.00;;;;;;;;;;5006255;28;20033;-76
2022/11/01 09:04:50;;;;;;;10.35;8.30;;;;;;;;;;5008577;28;20142;-77
2022/11/01 09:07:15;;;;;;;9.02;8.25;;;;;;;;;;5009002;28;20553;-76
2022/11/01 09:09:41;;;;;;;10.02;8.35;;;;;;;;;;5008598;28;20037;-76
2022/11/01 09:12:07;;;;;;;10.73;8.55;;;;;;;;;;5002931;28;20052;-76
2022/11/01 09:14:32;;;;;;;8.75;8.00;;;;;;;;;;5003018;28;20041;-76
2022/11/01 09:16:58;;;;;;;10.38;8.15;;;;;;;;;;5005451;28;20042;-77
2022/11/01 09:19:24;;;;;;;10.32;8.35;;;;;;;;;;5003715;28;20037;-76
2022/11/01 09:21:49;;;;;;;10.40;8.32;;;;;;;;;;5004591;28;20022;-76
2022/11/01 09:24:16;;;;;;;8.60;7.80;;;;;;;;;;5007508;28;20493;-76
2022/11/01 09:26:42;;;;;;;8.73;7.97;;;;;;;;;;5011274;28;20103;-76
2022/11/01 09:29:08;;;;;;;8.98;8.27;;;;;;;;;;5006981;28;20371;-76
2022/11/01 09:31:34;;;;;;;8.45;7.75;;;;;;;;;;5001786;28;20034;-76
2022/11/01 09:33:59;;;;;;;9.63;8.73;;;;;;;;;;5002766;28;20034;-76
2022/11/01 09:36:27;;;;;;;8.88;8.18;;;;;;;;;;4999251;28;20042;-76
2022/11/01 09:38:53;;;;;;;8.50;7.80;;;;;;;;;;5004311;28;20038;-77
2022/11/01 09:41:41;;;;;;;10.82;8.40;;;;;;;;;;5003150;28;20042;-76
2022/11/01 09:44:15;;;;;;;9.60;8.65;;;;;;;;;;5004426;28;20053;-77
2022/11/01 09:46:48;;;;;;;7.93;7.28;;;;;;;;;;5003902;28;20030;-77
2022/11/01 09:49:24;;;;;;;7.53;6.90;;;;;;;;;;5004956;28;20069;-77
2022/11/01 09:51:50;;;;;;;7.45;6.95;;;;;;;;;;5002270;28;20652;-76
2022/11/01 09:54:20;;;;;;;7.68;7.10;;;;;;;;;;5003293;28;20057;-77
2022/11/01 09:57:28;;;;;;;7.03;6.55;;;;;;;;;;5007860;28;20149;-75
2022/11/01 09:59:57;;;;;;;7.30;6.80;;;;;;;;;;5001718;28;20061;-77
2022/11/01 10:02:57;;;;;;;6.88;6.45;;;;;;;;;;5004436;28;20478;-76
2022/11/01 10:06:04;;;;;;;6.78;6.32;;;;;;;;;;5006872;28;20053;-77
2022/11/01 10:08:43;;;;;;;6.70;6.20;;;;;;;;;;5001133;28;20358;-77
2022/11/01 10:11:17;;;;;;;6.30;5.90;;;;;;;;;;5002691;28;20074;-76
2022/11/01 10:14:14;;;;;;;6.72;6.10;;;;;;;;;;5003544;28;20041;-76
2022/11/01 10:16:48;;;;;;;8.90;6.18;;;;;;;;;;5006622;28;20048;-77
2022/11/01 10:19:20;;;;;;;6.80;6.40;;;;;;;;;;5003005;28;20099;-77
2022/11/01 10:22:01;;;;;;;6.47;5.90;;;;;;;;;;5007899;28;20067;-76
2022/11/01 10:24:53;;;;;;;6.00;5.60;;;;;;;;;;5001156;28;20495;-76
2022/11/01 10:27:45;;;;;;;6.03;5.63;;;;;;;;;;5000711;28;20398;-77
2022/11/01 10:30:14;;;;;;;6.93;6.38;;;;;;;;;;5001330;28;20026;-76
2022/11/01 10:33:07;;;;;;;6.57;6.18;;;;;;;;;;5001381;28;20489;-76
2022/11/01 10:35:41;;;;;;;6.20;5.80;;;;;;;;;;5004355;28;20036;-77
2022/11/01 10:38:12;;;;;;;6.43;6.03;;;;;;;;;;5009408;28;20805;-76
2022/11/01 10:40:45;;;;;;;5.88;5.57;;;;;;;;;;5004013;28;20034;-77
2022/11/01 10:43:15;;;;;;;7.13;5.90;;;;;;;;;;5005805;28;20031;-76
2022/11/01 10:45:43;;;;;;;6.38;6.03;;;;;;;;;;5009163;28;20033;-76
2022/11/01 10:48:21;;;;;;;6.50;6.00;;;;;;;;;;5005142;28;20490;-76
2022/11/01 10:50:47;;;;;;;6.35;6.05;;;;;;;;;;5005260;28;20026;-77
2022/11/01 10:53:13;;;;;;;7.35;6.85;;;;;;;;;;5003532;28;20041;-76
2022/11/01 10:55:49;;;;;;;7.15;6.75;;;;;;;;;;5004826;28;20557;-77
2022/11/01 10:58:39;;;;;;;7.00;6.60;;;;;;;;;;5008577;28;20108;-76
2022/11/01 11:01:08;;;;;;;7.60;7.10;;;;;;;;;;5004095;28;20030;-76
2022/11/01 11:03:35;;;;;;;6.80;6.40;;;;;;;;;;5005570;28;20041;-77
2022/11/01 11:06:09;;;;;;;7.05;6.65;;;;;;;;;;5003714;28;20029;-77
2022/11/01 11:08:38;;;;;;;6.93;6.40;;;;;;;;;;5000940;28;20037;-76
2022/11/01 11:11:09;;;;;;;7.15;6.70;;;;;;;;;;5007157;28;20039;-76
2022/11/01 11:13:36;;;;;;;7.50;6.93;;;;;;;;;;5003532;28;20041;-77
2022/11/01 11:16:04;;;;;;;7.30;6.85;;;;;;;;;;5006577;28;20038;-76
2022/11/01 11:18:37;;;;;;;7.03;6.63;;;;;;;;;;5005976;28;20048;-76
2022/11/01 11:21:10;;;;;;;7.75;7.05;;;;;;;;;;5005804;28;20125;-77
2022/11/01 11:23:43;;;;;;;7.30;6.80;;;;;;;;;;5002382;28;20042;-75
2022/11/01 11:26:12;;;;;;;7.38;6.88;;;;;;;;;;5006645;28;20616;-76
2022/11/01 11:28:43;;;;;;;7.00;6.60;;;;;;;;;;5004831;28;20037;-77
2022/11/01 11:31:17;;;;;;;7.28;6.78;;;;;;;;;;4999468;28;20108;-77
2022/11/01 11:33:56;;;;;;;7.20;6.70;;;;;;;;;;5002815;28;20049;-78
2022/11/01 11:36:36;;;;;;;8.13;7.03;;;;;;;;;;4999799;28;20030;-77
2022/11/01 11:39:03;;;;;;;7.38;6.88;;;;;;;;;;5000250;28;20029;-77
2022/11/01 11:41:37;;;;;;;7.15;6.55;;;;;;;;;;4998893;28;20311;-77
2022/11/01 11:44:43;;;;;;;7.00;6.40;;;;;;;;;;5004899;28;20054;-77
2022/11/01 11:47:36;;;;;;;7.57;7.07;;;;;;;;;;5002145;28;20122;-77
2022/11/01 11:50:15;;;;;;;11.25;10.05;;;;;;;;;;5001847;28;20046;-76
2022/11/01 11:52:41;;;;;;;9.82;9.00;;;;;;;;;;5009505;28;20095;-77
2022/11/01 11:55:26;;;;;;;7.35;6.68;;;;;;;;;;5003866;28;20042;-77
2022/11/01 11:57:53;;;;;;;7.10;6.60;;;;;;;;;;5004539;28;20103;-76
2022/11/01 12:00:22;;;;;;;8.95;8.05;;;;;;;;;;5003448;28;20537;-77
2022/11/01 12:02:49;;;;;;;7.78;7.18;;;;;;;;;;5003007;28;20026;-75
2022/11/01 12:05:18;;;;;;;7.20;6.68;;;;;;;;;;4995407;28;20136;-75
2022/11/01 12:07:50;;;;;;;8.48;7.68;;;;;;;;;;5002662;28;20125;-76
2022/11/01 12:10:37;;;;;;;7.53;7.00;;;;;;;;;;5005106;28;20519;-76
2022/11/01 12:13:30;;;;;;;8.00;7.40;;;;;;;;;;5003972;28;20651;-77
2022/11/01 12:16:08;;;;;;;8.35;7.75;;;;;;;;;;5007837;28;20061;-77
2022/11/01 12:18:34;;;;;;;7.10;6.50;;;;;;;;;;5007743;28;20030;-77
2022/11/01 12:20:59;;;;;;;6.05;5.65;;;;;;;;;;5006154;28;20048;-75
2022/11/01 12:23:35;;;;;;;6.80;6.40;;;;;;;;;;5007155;28;20034;-76
2022/11/01 12:26:04;;;;;;;6.22;5.82;;;;;;;;;;5004565;28;20033;-76
2022/11/01 12:28:38;;;;;;;7.25;6.80;;;;;;;;;;5010343;28;20060;-76
2022/11/01 12:31:12;;;;;;;6.53;6.03;;;;;;;;;;5008342;28;20373;-77
2022/11/01 12:34:04;;;;;;;6.20;5.70;;;;;;;;;;5004116;28;20474;-76
2022/11/01 12:36:34;;;;;;;6.78;6.28;;;;;;;;;;4983936;28;20042;-77
2022/11/01 12:39:30;;;;;;;7.25;6.72;;;;;;;;;;5006778;28;20489;-77
2022/11/01 12:42:02;;;;;;;7.78;7.07;;;;;;;;;;5006974;28;20442;-76
2022/11/01 12:44:39;;;;;;;7.78;7.18;;;;;;;;;;5007044;28;20378;-76
2022/11/01 12:47:16;;;;;;;7.80;7.30;;;;;;;;;;5008975;28;20563;-77
2022/11/01 12:49:51;;;;;;;8.23;6.70;;;;;;;;;;4997960;28;20093;-76
2022/11/01 12:52:27;;;;;;;7.53;7.03;;;;;;;;;;5009320;28;20037;-78
2022/11/01 12:55:13;;;;;;;7.63;7.05;;;;;;;;;;5010894;28;20072;-75
2022/11/01 12:57:39;;;;;;;7.85;7.22;;;;;;;;;;5009260;28;20440;-78
2022/11/01 13:00:06;;;;;;;7.20;6.70;;;;;;;;;;5010860;28;20508;-77
2022/11/01 13:02:59;;;;;;;7.70;7.20;;;;;;;;;;5011587;28;20582;-77
2022/11/01 13:05:33;;;;;;;7.00;6.50;;;;;;;;;;5007106;28;20068;-75
2022/11/01 13:08:17;;;;;;;7.43;6.90;;;;;;;;;;5012786;28;20056;-77
2022/11/01 13:10:46;;;;;;;8.35;6.85;;;;;;;;;;5003162;28;20499;-77
2022/11/01 13:13:40;;;;;;;9.15;7.10;;;;;;;;;;5002803;28;20037;-78
2022/11/01 13:16:20;;;;;;;7.68;7.10;;;;;;;;;;5011061;28;20042;-78
2022/11/01 13:18:54;;;;;;;8.73;7.05;;;;;;;;;;5009701;28;20033;-77
2022/11/01 13:21:52;;;;;;;8.02;7.32;;;;;;;;;;5006325;28;20128;-78
2022/11/01 13:24:38;;;;;;;7.90;7.27;;;;;;;;;;5014895;28;20424;-77
2022/11/01 13:27:05;;;;;;;8.35;7.55;;;;;;;;;;5015019;28;20052;-77
2022/11/01 13:29:49;;;;;;;8.13;7.35;;;;;;;;;;5011552;28;20029;-76
2022/11/01 13:32:22;;;;;;;8.27;7.57;;;;;;;;;;5011870;28;20046;-77
2022/11/01 13:34:48;;;;;;;8.50;7.70;;;;;;;;;;5015598;28;20029;-78
2022/11/01 13:37:25;;;;;;;8.25;7.50;;;;;;;;;;5006461;28;20125;-76
2022/11/01 13:40:06;;;;;;;8.70;8.02;;;;;;;;;;5004701;28;20036;-77
2022/11/01 13:42:49;;;;;;;9.05;7.80;;;;;;;;;;5000800;28;20336;-77
2022/11/01 13:45:33;;;;;;;8.15;7.43;;;;;;;;;;5003385;28;20171;-77
2022/11/01 13:48:10;;;;;;;7.63;7.13;;;;;;;;;;4991167;28;20038;-77
2022/11/01 13:50:47;;;;;;;8.70;7.82;;;;;;;;;;5007976;28;20069;-77
2022/11/01 13:53:43;;;;;;;8.70;7.90;;;;;;;;;;5015548;28;20481;-76
2022/11/01 13:56:22;;;;;;;10.60;7.95;;;;;;;;;;5018733;28;20030;-77
2022/11/01 13:58:48;;;;;;;8.20;7.57;;;;;;;;;;5013923;28;20052;-76
2022/11/01 14:05:37;;;;;;;8.40;7.57;;;;;;;;;;4981538;28;20097;-78
2022/11/01 14:08:03;;;;;;;8.48;7.65;;;;;;;;;;4990263;28;20049;-77
2022/11/01 14:10:29;;;;;;;8.55;7.80;;;;;;;;;;4991016;28;20451;-77
2022/11/01 14:13:10;;;;;;;8.35;7.65;;;;;;;;;;4990998;28;20184;-76
2022/11/01 14:15:57;;;;;;;10.50;7.95;;;;;;;;;;4987820;28;20048;-77
2022/11/01 14:18:23;;;;;;;8.40;7.80;;;;;;;;;;4991917;28;20576;-78
2022/11/01 14:20:53;;;;;;;10.48;7.63;;;;;;;;;;4989923;28;20758;-78
2022/11/01 14:23:26;;;;;;;8.55;7.80;;;;;;;;;;4993227;28;20041;-78
2022/11/01 14:26:17;;;;;;;8.00;7.50;;;;;;;;;;4993370;28;20379;-78
2022/11/01 14:28:45;;;;;;;8.93;8.13;;;;;;;;;;4993873;28;20518;-78
2022/11/01 14:31:15;;;;;;;9.25;7.72;;;;;;;;;;4986820;28;20551;-76
2022/11/01 14:33:41;;;;;;;8.25;7.65;;;;;;;;;;4983514;28;20066;-77
2022/11/01 14:36:11;;;;;;;13.30;7.70;;;;;;;;;;4941723;28;20441;-76
2022/11/01 14:38:57;;;;;;;8.75;7.55;;;;;;;;;;4977387;28;20038;-75
2022/11/01 14:41:26;;;;;;;8.20;7.45;;;;;;;;;;5003185;28;20046;-77
2022/11/01 14:43:58;;;;;;;8.07;7.38;;;;;;;;;;5003652;28;20534;-77
2022/11/01 14:46:25;;;;;;;9.52;7.90;;;;;;;;;;5004599;28;20094;-76
2022/11/01 14:49:00;;;;;;;8.35;7.53;;;;;;;;;;5002219;28;20037;-78
2022/11/01 14:51:38;;;;;;;9.32;7.40;;;;;;;;;;5002695;28;20022;-77
2022/11/01 14:54:23;;;;;;;9.23;7.88;;;;;;;;;;5007084;28;20049;-77
2022/11/01 14:56:54;;;;;;;8.80;8.00;;;;;;;;;;5007478;28;20030;-77
2022/11/01 14:59:31;;;;;;;8.75;8.00;;;;;;;;;;5001828;28;20046;-77
2022/11/01 15:02:01;;;;;;;9.75;8.40;;;;;;;;;;5011439;28;20026;-78
2022/11/01 15:04:30;;;;;;;9.02;8.23;;;;;;;;;;5011134;28;20097;-78
2022/11/01 15:06:56;;;;;;;;;;;;;;;;;;5003599;28;20481;-77